Terminal Aerodrome Forecast
Issued by NWS

Home | Current Version | Previous Version | Text Only | Print | Product List | Glossary On
Versions: 1 2 3 4 5 6 7 8 9 10 11 12 13 14 15 16 17 18 19 20 21 22 23 24 25 26
000
FTPA31 PHFO 241700
TAFJHM
TAF
PHJH 241737Z 2418/2518 06014G22KT P6SM VCSH FEW025 SCT050
     FM242000 06018G27KT P6SM SCT025 BKN050
     FM250600 06012G17KT P6SM SCT025 SCT050
      AMD NOT SKED AFT 250400=

USA.gov is the U.S. government's official web portal to all federal, state and local government web resources and services.